Wednesday, November 26, 2014
21:25 UTC
  |  Log In   |  Register Free
Airport Search:

Jackson-Medgar Wiley Evers International Airport
(KJAN)

FAA data valid effective November 13, 2014 - January 08, 2015 (unless otherwise noted).

 
 
 
 
 
 
 
 
 
 
 
 
 
 

Current Aviation Weather for Jackson-Medgar Wiley Evers International Airport (KJAN)

The most recent METAR observation for KJAN was updated at: 2119
METAR Summary (Translated METAR)
KJAN
262054Z 23015G22KT 10SM FEW250 19/01 A3005 RMK AO2 SLP175 T01940006 56028
KHKS
262053Z AUTO 23015G22KT 10SM CLR 19/01 A3006 RMK AO2 PK WND 25028/2021 SLP174 T01940006 55025
(7.6 nm NW from KJAN)
KJVW
262055Z AUTO 24013G23KT 10SM CLR 19/17 A3006 RMK AO2
(16.9 nm SW from KJAN)
TAF Summary (Translated TAF)
KJAN
261729Z 2618/2718 19010KT P6SM SKC FM262300 25007KT P6SM SKC FM270300 32007KT P6SM SKC
KHKS
(7.6 nm NW from KJAN)
261729Z 2618/2718 20010KT P6SM SKC FM262300 25007KT P6SM SKC FM270300 32007KT P6SM SKC
  Airport Weather Conditions for KJAN

 Current Weather at JAN
67° F
A Few Clouds
Southwest winds at 17.3 mph
JAN NOAA Radar

Pressure: 30.05 in
Humidity: 29%
Wind: from the Southwest at 17.3 gusting to 25.3 MPH (15 gusting to 22 KT)
Dew Point: 33.1°F
Visibility: 10.00 mi


Airport Weather Forecast for KJAN

Translated METAR and TAF for KJAN
Translated METAR for KJAN (2120 UTC 26 November 2014)
found at http://aviationweather.gov/adds/metars/
 
METAR text: KJAN 262054Z 23015G22KT 10SM FEW250 19/01 A3005 RMK AO2 SLP175 T01940006 56028
Conditions at: KJAN (JACKSON , MS, US) observed 2054 UTC 26 November 2014
Temperature: 19.4°C (67°F)
Dewpoint: 0.6°C (33°F) [RH = 28%]
Pressure (altimeter): 30.05 inches Hg (1017.7 mb)
[Sea-level pressure: 1017.5 mb]
Winds: from the SW (230 degrees) at 17 MPH (15 knots; 7.8 m/s)
gusting to 25 MPH (22 knots; 11.4 m/s)
Visibility: 10 or more miles (16+ km)
Ceiling: at least 12,000 feet AGL
Clouds: few clouds at 25000 feet AGL
Weather: no significant weather observed at this time
Translated TAF for KJAN
Forecast for: KJAN (JACKSON , MS, US)
TAF Text: KJAN 262106Z 2621/2718 23015G22KT P6SM FEW250
Forecast period: 2100 to 2300 UTC 26 November 2014
Forecast type: FROM: standard forecast or significant change
Winds: from the SW (230 degrees) at 17 MPH (15 knots; 7.8 m/s)
gusting to 25 MPH (22 knots; 11.4 m/s)
Visibility: 6 or more miles (10+ km)
Clouds: few clouds at 25000 feet AGL
Weather: no significant weather forecast for this period
TAF Text: FM262300 25007KT P6SM SKC
Forecast period: 2300 UTC 26 November 2014 to 0300 UTC 27 November 2014
Forecast type: FROM: standard forecast or significant change
Winds: from the WSW (250 degrees) at 8 MPH (7 knots; 3.6 m/s)
Visibility: 6 or more miles (10+ km)
Clouds: clear skies
Weather: no significant weather forecast for this period
TAF Text: FM270300 32007KT P6SM SKC
Forecast period: 0300 to 1800 UTC 27 November 2014
Forecast type: FROM: standard forecast or significant change
Winds: from the NW (320 degrees) at 8 MPH (7 knots; 3.6 m/s)
Visibility: 6 or more miles (10+ km)
Clouds: clear skies
Weather: no significant weather forecast for this period

Find All Airport Services Find A Hotel Find A Rental Car Find A Golf Course Find A Restaurant $100 Hamburger



FBO's on the Field
FBO Company Facility Photos Services Transportation Aviation Fuel Prices: Prices include tax
Catering Weather Repair Courtesy Rental Type 100LL JetA JetA+ MOGAS 8087
 
Atlantic Aviation - JAN

This FBO has not yet been rated
FS:Independent
Last Updated: Nov-26
Login to update fuel prices
SS:
Contact Atlantic Aviation - JANMore FBO Information
 
Add another FBO Facility Photos Catering Weather Repair Courtesy Rental Type 100LL JetA JetA+ MOGAS 8087
Services Transportation Aviation Fuel Prices: Prices include tax


model-print
model-print
model-print
model-print